createdAt,value
2022-12-12T00:04:03.712Z,1.22
2022-12-12T00:09:05.556Z,1.23
2022-12-12T00:14:07.119Z,1.26
2022-12-12T00:19:08.762Z,1.32
2022-12-12T00:24:11.057Z,1.44
2022-12-12T00:29:12.671Z,1.53
2022-12-12T00:34:14.268Z,1.51
2022-12-12T00:39:18.480Z,1.55
2022-12-12T00:44:20.198Z,1.59
2022-12-12T00:49:21.755Z,1.45
2022-12-12T00:54:23.273Z,1.42
2022-12-12T00:59:24.786Z,1.43
2022-12-12T01:04:26.307Z,1.47
2022-12-12T01:09:27.847Z,1.50
2022-12-12T01:14:29.567Z,1.38
2022-12-12T01:19:31.109Z,1.34
2022-12-12T01:24:32.659Z,1.29
2022-12-12T01:29:34.923Z,1.37
2022-12-12T01:34:36.434Z,1.40
2022-12-12T01:39:38.903Z,1.41
2022-12-12T01:44:45.184Z,1.45
2022-12-12T01:50:01.346Z,1.47
2022-12-12T01:55:06.228Z,1.45
2022-12-12T02:00:11.115Z,1.39
2022-12-12T02:05:23.433Z,1.29
2022-12-12T02:10:25.282Z,1.23
2022-12-12T02:15:34.630Z,1.14
2022-12-12T02:21:04.291Z,1.13
2022-12-12T02:26:24.327Z,1.08
2022-12-12T02:31:30.366Z,0.98
2022-12-12T02:36:43.084Z,0.99
2022-12-12T02:41:54.073Z,0.97
2022-12-12T02:47:07.887Z,0.94
2022-12-12T02:52:11.225Z,0.96
2022-12-12T02:57:21.048Z,0.91
2022-12-12T03:02:37.526Z,0.85
2022-12-12T03:08:04.280Z,0.85
2022-12-12T03:13:23.933Z,0.68
2022-12-12T03:18:37.673Z,0.66
2022-12-12T03:23:47.282Z,0.60
2022-12-12T03:28:55.929Z,0.65
2022-12-12T03:34:02.582Z,0.57
2022-12-12T03:39:11.568Z,0.42
2022-12-12T03:44:22.141Z,0.35
2022-12-12T03:49:33.193Z,0.29
2022-12-12T03:54:41.873Z,0.32
2022-12-12T03:59:59.682Z,0.37
2022-12-12T04:05:16.457Z,0.36
2022-12-12T04:10:18.497Z,0.35
2022-12-12T04:15:41.517Z,0.29
2022-12-12T04:21:28.181Z,0.26
2022-12-12T04:26:46.911Z,0.22
2022-12-12T04:32:12.217Z,0.19
2022-12-12T04:37:19.905Z,0.18
2022-12-12T04:42:25.027Z,0.29
2022-12-12T04:47:31.134Z,0.22
2022-12-12T04:52:34.200Z,0.20
2022-12-12T04:57:41.265Z,0.21
2022-12-12T05:02:57.545Z,0.25
2022-12-12T05:08:32.431Z,0.25
2022-12-12T05:13:37.941Z,0.25
2022-12-12T05:18:39.503Z,0.25
2022-12-12T05:23:41.394Z,0.16
2022-12-12T05:28:42.895Z,0.13
2022-12-12T05:33:44.527Z,0.08
2022-12-12T05:38:46.084Z,-0.06
2022-12-12T05:43:48.482Z,-0.03
2022-12-12T05:48:49.989Z,-0.03
2022-12-12T05:53:51.522Z,-0.06
2022-12-12T05:58:53.038Z,-0.06
2022-12-12T06:03:54.606Z,-0.10
2022-12-12T06:08:56.158Z,-0.11
2022-12-12T06:13:57.752Z,-0.10
2022-12-12T06:18:59.341Z,-0.07
2022-12-12T06:24:00.885Z,-0.14
2022-12-12T06:29:02.711Z,-0.18
2022-12-12T06:34:04.302Z,-0.13
2022-12-12T06:39:05.992Z,-0.08
2022-12-12T06:44:07.658Z,-0.10
2022-12-12T06:49:09.152Z,-0.07
2022-12-12T06:54:15.734Z,-0.01
2022-12-12T06:59:17.398Z,0.02
2022-12-12T07:04:18.881Z,0.02
2022-12-12T07:09:20.564Z,0.01
2022-12-12T07:14:22.134Z,0.06
2022-12-12T07:19:23.683Z,-0.01
2022-12-12T07:24:25.196Z,0.05
2022-12-12T07:29:26.971Z,0.12
2022-12-12T07:34:29.674Z,0.10
2022-12-12T07:39:32.405Z,0.10
2022-12-12T07:44:34.224Z,0.09
2022-12-12T07:49:35.747Z,0.04
2022-12-12T07:54:38.729Z,-0.01
2022-12-12T07:59:40.379Z,0.03
2022-12-12T08:04:41.950Z,0.02
2022-12-12T08:09:43.627Z,0.05
2022-12-12T08:14:45.358Z,0.08
2022-12-12T08:19:46.849Z,0.03
2022-12-12T08:24:49.531Z,-0.05
2022-12-12T08:29:52.802Z,-0.08
2022-12-12T08:34:58.221Z,-0.18
2022-12-12T08:39:59.947Z,-0.27
2022-12-12T08:45:01.502Z,-0.32
2022-12-12T08:50:04.434Z,-0.33
2022-12-12T08:55:07.214Z,0.00
2022-12-12T09:00:09.515Z,1.29
2022-12-12T09:05:11.419Z,1.24
2022-12-12T09:10:13.159Z,1.94
2022-12-12T09:15:15.232Z,1.86
2022-12-12T09:20:17.148Z,1.67
2022-12-12T09:25:18.778Z,2.24
2022-12-12T09:30:20.388Z,2.74
2022-12-12T09:35:22.162Z,2.75
2022-12-12T09:40:32.818Z,3.00
2022-12-12T09:45:37.027Z,3.13
2022-12-12T09:50:47.856Z,3.16
2022-12-12T09:56:05.319Z,2.72
2022-12-12T10:01:18.522Z,3.39
2022-12-12T10:06:37.273Z,2.50
2022-12-12T10:11:42.254Z,3.05
2022-12-12T10:16:44.181Z,3.58
2022-12-12T10:21:47.877Z,2.69
2022-12-12T10:26:49.542Z,3.41
2022-12-12T10:32:26.719Z,2.85
2022-12-12T10:38:05.827Z,3.98
2022-12-12T10:43:22.372Z,4.64
2022-12-12T10:48:24.013Z,4.25
2022-12-12T10:53:26.055Z,4.89
2022-12-12T10:58:36.401Z,4.49
2022-12-12T11:03:52.442Z,5.11
2022-12-12T11:09:22.803Z,4.66
2022-12-12T11:14:33.680Z,4.90
2022-12-12T11:19:38.855Z,4.94
2022-12-12T11:24:45.257Z,4.91
2022-12-12T11:29:53.861Z,4.26
2022-12-12T11:34:59.022Z,4.61
2022-12-12T11:40:00.692Z,4.99
2022-12-12T11:45:25.974Z,4.84
2022-12-12T11:50:29.799Z,4.97
2022-12-12T11:55:54.712Z,4.69
2022-12-12T12:01:07.133Z,4.86
2022-12-12T12:06:51.645Z,5.05
2022-12-12T12:12:10.164Z,4.60
2022-12-12T12:18:05.697Z,3.83
2022-12-12T12:23:41.216Z,3.49
2022-12-12T12:29:05.751Z,3.65
2022-12-12T12:34:40.921Z,3.51
2022-12-12T12:40:03.096Z,3.83
2022-12-12T12:45:38.277Z,4.82
2022-12-12T12:51:06.772Z,4.98
2022-12-12T12:56:30.115Z,5.01
2022-12-12T13:01:34.511Z,5.22
2022-12-12T13:06:42.365Z,4.75
2022-12-12T13:11:48.966Z,4.94
2022-12-12T13:16:51.723Z,4.92
2022-12-12T13:22:16.580Z,5.00
2022-12-12T13:27:41.014Z,4.93
2022-12-12T13:32:57.468Z,4.93
2022-12-12T13:38:00.381Z,4.71
2022-12-12T13:43:09.528Z,4.64
2022-12-12T13:48:27.166Z,4.50
2022-12-12T13:53:28.746Z,3.98
2022-12-12T13:58:34.169Z,4.07
2022-12-12T14:03:36.863Z,3.95
2022-12-12T14:08:48.407Z,3.33
2022-12-12T14:13:50.056Z,3.70
2022-12-12T14:18:52.295Z,3.71
2022-12-12T14:23:53.878Z,3.50
2022-12-12T14:29:17.484Z,3.24
2022-12-12T14:34:34.472Z,3.00
2022-12-12T14:39:55.837Z,2.59
2022-12-12T14:44:57.508Z,2.45
2022-12-12T14:50:11.168Z,2.35
2022-12-12T14:55:16.110Z,2.20
2022-12-12T15:00:19.397Z,2.00
2022-12-12T15:05:21.236Z,1.85
2022-12-12T15:10:30.087Z,1.63
2022-12-12T15:15:34.068Z,1.37
2022-12-12T15:20:35.824Z,1.23
2022-12-12T15:25:46.617Z,1.03
2022-12-12T15:30:53.019Z,0.84
2022-12-12T15:36:02.410Z,0.57
2022-12-12T15:41:12.711Z,0.39
2022-12-12T15:46:15.900Z,0.28
2022-12-12T15:51:24.649Z,0.50
2022-12-12T15:56:28.643Z,0.44
2022-12-12T16:01:31.013Z,0.57
2022-12-12T16:06:36.912Z,0.43
2022-12-12T16:11:52.948Z,0.50
2022-12-12T16:17:06.602Z,0.61
2022-12-12T16:22:17.558Z,0.91
2022-12-12T16:27:19.963Z,0.97
2022-12-12T16:32:23.206Z,0.70
2022-12-12T16:37:24.846Z,0.38
2022-12-12T16:42:28.096Z,0.49
2022-12-12T16:47:30.721Z,0.36
2022-12-12T16:52:32.215Z,-0.02
2022-12-12T16:57:33.790Z,-0.13
2022-12-12T17:02:35.326Z,-0.18
2022-12-12T17:07:36.919Z,-0.10
2022-12-12T17:12:38.902Z,0.09
2022-12-12T17:17:40.641Z,0.11
2022-12-12T17:22:42.669Z,0.14
2022-12-12T17:27:44.579Z,0.01
2022-12-12T17:38:05.743Z,-0.40
2022-12-12T17:43:07.353Z,-0.48
2022-12-12T17:48:09.092Z,-0.48
2022-12-12T17:53:10.630Z,-0.47
2022-12-12T17:58:12.245Z,-0.44
2022-12-12T18:03:13.770Z,-0.58
2022-12-12T18:08:15.401Z,-0.70
2022-12-12T18:13:16.970Z,-0.71
2022-12-12T18:18:18.581Z,-0.86
2022-12-12T18:23:20.195Z,-0.76
2022-12-12T18:28:21.818Z,-0.65
2022-12-12T18:33:23.508Z,-0.58
2022-12-12T18:38:25.153Z,-0.46
2022-12-12T18:43:27.644Z,-0.63
2022-12-12T18:48:29.444Z,-0.68
2022-12-12T18:53:31.027Z,-0.83
2022-12-12T18:58:33.981Z,-0.90
2022-12-12T19:03:36.766Z,-1.07
2022-12-12T19:08:39.078Z,-1.01
2022-12-12T19:13:40.918Z,-1.11
2022-12-12T19:18:43.312Z,-1.32
2022-12-12T19:23:45.791Z,-1.42
2022-12-12T19:28:47.386Z,-1.42
2022-12-12T19:33:49.108Z,-1.54
2022-12-12T19:38:51.802Z,-1.51
2022-12-12T19:43:54.120Z,-1.60
2022-12-12T19:48:57.956Z,-1.42
2022-12-12T19:54:02.987Z,-1.32
2022-12-12T19:59:04.896Z,-1.80
2022-12-12T20:04:08.763Z,-2.03
2022-12-12T20:09:15.733Z,-2.05
2022-12-12T20:14:20.913Z,-1.67
2022-12-12T20:19:24.896Z,-1.59
2022-12-12T20:24:26.501Z,-1.56
2022-12-12T20:29:28.073Z,-1.63
2022-12-12T20:34:29.942Z,-1.65
2022-12-12T20:39:31.625Z,-1.64
2022-12-12T20:44:33.289Z,-1.73
2022-12-12T20:49:34.822Z,-1.73
2022-12-12T20:54:36.493Z,-1.63
2022-12-12T20:59:38.256Z,-1.67
2022-12-12T21:04:39.859Z,-1.79
2022-12-12T21:09:41.541Z,-1.77
2022-12-12T21:14:43.613Z,-1.77
2022-12-12T21:19:45.289Z,-1.89
2022-12-12T21:24:47.624Z,-1.80
2022-12-12T21:29:49.250Z,-1.79
2022-12-12T21:34:50.952Z,-1.89
2022-12-12T21:39:52.619Z,-1.96
2022-12-12T21:44:54.141Z,-2.00
2022-12-12T21:49:55.657Z,-1.99
2022-12-12T21:54:57.311Z,-1.97
2022-12-12T21:59:58.858Z,-2.03
2022-12-12T22:05:00.438Z,-2.13
2022-12-12T22:10:10.783Z,-2.07
2022-12-12T22:15:13.459Z,-2.03
2022-12-12T22:20:15.273Z,-1.96
2022-12-12T22:25:19.877Z,-1.93
2022-12-12T22:30:21.557Z,-1.90
2022-12-12T22:35:23.211Z,-1.99
2022-12-12T22:40:24.798Z,-2.03
2022-12-12T22:45:26.440Z,-2.09
2022-12-12T22:50:28.036Z,-2.31
2022-12-12T22:55:29.623Z,-2.26
2022-12-12T23:00:31.395Z,-2.14
2022-12-12T23:05:33.077Z,-2.04
2022-12-12T23:10:35.036Z,-2.05
2022-12-12T23:15:36.802Z,-2.30
2022-12-12T23:20:38.339Z,-2.48
2022-12-12T23:25:39.973Z,-2.65
2022-12-12T23:30:41.625Z,-2.68
2022-12-12T23:35:48.044Z,-2.72
2022-12-12T23:40:49.653Z,-2.67
2022-12-12T23:45:51.273Z,-2.63
2022-12-12T23:50:52.847Z,-2.53
2022-12-12T23:55:54.483Z,-2.53
